Time;durP1;ratioP1;P1;durP2;ratioP2;P2;SDS_P1;SDS_P2;PMS_P1;PMS_P2;Temp;Humidity;BMP_temperature;BMP_pressure;BME280_temperature;BME280_humidity;BME280_pressure;Samples;Min_cycle;Max_cycle;Signal;HPM_P1;HPM_P2
2023/04/16 00:00:28;;;;;;;61.38;16.55;;;;;;;;;;5109302;28;20054;-67
2023/04/16 00:02:55;;;;;;;58.50;16.15;;;;;;;;;;5098301;28;20062;-67
2023/04/16 00:05:23;;;;;;;59.22;15.50;;;;;;;;;;5106200;28;20051;-67
2023/04/16 00:07:50;;;;;;;52.92;14.63;;;;;;;;;;5107165;28;20056;-67
2023/04/16 00:10:18;;;;;;;60.95;17.15;;;;;;;;;;5104120;27;20048;-67
2023/04/16 00:12:45;;;;;;;54.92;15.18;;;;;;;;;;5104991;28;20044;-67
2023/04/16 00:15:14;;;;;;;58.42;15.60;;;;;;;;;;5108470;28;20562;-67
2023/04/16 00:17:41;;;;;;;51.47;15.50;;;;;;;;;;5107529;28;20478;-67
2023/04/16 00:20:08;;;;;;;59.30;16.02;;;;;;;;;;5108596;28;20052;-67
2023/04/16 00:22:36;;;;;;;53.33;15.07;;;;;;;;;;5106972;27;20411;-67
2023/04/16 00:25:03;;;;;;;56.13;15.77;;;;;;;;;;5103305;28;20044;-68
2023/04/16 00:27:30;;;;;;;50.22;16.63;;;;;;;;;;5107533;28;20059;-67
2023/04/16 00:29:57;;;;;;;50.28;14.85;;;;;;;;;;5108399;28;20122;-68
2023/04/16 00:32:26;;;;;;;58.40;15.70;;;;;;;;;;5107421;28;20040;-68
2023/04/16 00:34:53;;;;;;;53.65;15.70;;;;;;;;;;5109008;28;20387;-67
2023/04/16 00:37:20;;;;;;;50.22;16.20;;;;;;;;;;5103508;28;20051;-67
2023/04/16 00:39:48;;;;;;;49.00;16.10;;;;;;;;;;5108351;28;20058;-68
2023/04/16 00:42:15;;;;;;;60.45;16.98;;;;;;;;;;5105827;28;20501;-67
2023/04/16 00:44:42;;;;;;;54.67;15.68;;;;;;;;;;5107734;28;20051;-67
2023/04/16 00:47:10;;;;;;;51.72;15.55;;;;;;;;;;5104347;28;20048;-67
2023/04/16 00:49:39;;;;;;;60.22;15.82;;;;;;;;;;5106026;28;20084;-67
2023/04/16 00:52:06;;;;;;;54.58;16.55;;;;;;;;;;5107738;28;20043;-68
2023/04/16 00:54:34;;;;;;;50.72;16.85;;;;;;;;;;5106168;28;20063;-68
2023/04/16 00:57:01;;;;;;;48.42;16.65;;;;;;;;;;5105148;28;20044;-67
2023/04/16 00:59:29;;;;;;;51.42;17.40;;;;;;;;;;5107625;28;20079;-67
2023/04/16 01:01:56;;;;;;;60.97;17.92;;;;;;;;;;5107860;28;20051;-68
2023/04/16 01:04:25;;;;;;;46.72;16.90;;;;;;;;;;5110981;28;20048;-67
2023/04/16 01:06:53;;;;;;;60.83;19.10;;;;;;;;;;5110881;28;20849;-67
2023/04/16 01:09:20;;;;;;;68.68;19.73;;;;;;;;;;5112224;28;20047;-68
2023/04/16 01:11:48;;;;;;;63.28;20.27;;;;;;;;;;5108905;28;20054;-67
2023/04/16 01:14:15;;;;;;;83.18;21.60;;;;;;;;;;5102714;28;20054;-67
2023/04/16 01:16:42;;;;;;;64.80;19.45;;;;;;;;;;5107548;28;20399;-67
2023/04/16 01:19:09;;;;;;;59.83;18.52;;;;;;;;;;5108826;28;20051;-68
2023/04/16 01:21:38;;;;;;;62.72;18.83;;;;;;;;;;5111840;28;20485;-67
2023/04/16 01:24:05;;;;;;;62.15;19.50;;;;;;;;;;5110523;27;20056;-68
2023/04/16 01:26:33;;;;;;;69.00;20.38;;;;;;;;;;5111161;28;20503;-67
2023/04/16 01:29:00;;;;;;;72.70;19.50;;;;;;;;;;5111537;27;20048;-67
2023/04/16 01:31:27;;;;;;;81.45;20.35;;;;;;;;;;5111962;28;20079;-67
2023/04/16 01:33:55;;;;;;;75.90;20.42;;;;;;;;;;5110809;28;20063;-68
2023/04/16 01:36:22;;;;;;;67.07;21.42;;;;;;;;;;5108052;27;20488;-67
2023/04/16 01:38:51;;;;;;;78.57;21.85;;;;;;;;;;5102619;28;20058;-67
2023/04/16 01:41:18;;;;;;;75.00;20.80;;;;;;;;;;5103612;28;20406;-67
2023/04/16 01:43:45;;;;;;;72.30;21.50;;;;;;;;;;5104547;28;20047;-67
2023/04/16 01:46:14;;;;;;;76.95;22.25;;;;;;;;;;5109834;28;20052;-67
2023/04/16 01:48:41;;;;;;;72.50;21.75;;;;;;;;;;5111072;28;20479;-67
2023/04/16 01:51:08;;;;;;;80.68;20.92;;;;;;;;;;5108908;27;20066;-67
2023/04/16 01:53:36;;;;;;;81.07;21.90;;;;;;;;;;5109468;27;20048;-67
2023/04/16 01:56:05;;;;;;;78.22;22.15;;;;;;;;;;5105184;28;20138;-68
2023/04/16 01:58:33;;;;;;;70.28;21.65;;;;;;;;;;5102271;28;20047;-68
2023/04/16 02:01:00;;;;;;;77.88;22.27;;;;;;;;;;5100892;28;20680;-68
2023/04/16 02:03:28;;;;;;;64.78;21.23;;;;;;;;;;5108525;27;20409;-68
2023/04/16 02:05:55;;;;;;;66.93;22.50;;;;;;;;;;5109032;28;20505;-67
2023/04/16 02:08:22;;;;;;;82.38;23.00;;;;;;;;;;5111138;28;20073;-67
2023/04/16 02:10:50;;;;;;;78.13;24.25;;;;;;;;;;5098509;28;20051;-68
2023/04/16 02:13:19;;;;;;;80.60;23.80;;;;;;;;;;5104940;27;20043;-67
2023/04/16 02:15:47;;;;;;;82.93;23.20;;;;;;;;;;5106730;27;20147;-68
2023/04/16 02:18:14;;;;;;;74.72;22.98;;;;;;;;;;5103626;28;20052;-67
2023/04/16 02:20:42;;;;;;;72.53;21.95;;;;;;;;;;5101800;28;20048;-67
2023/04/16 02:23:09;;;;;;;77.10;21.88;;;;;;;;;;5111125;27;20094;-68
2023/04/16 02:25:40;;;;;;;80.40;23.70;;;;;;;;;;5108795;28;20051;-67
2023/04/16 02:28:08;;;;;;;71.70;21.65;;;;;;;;;;5108302;27;20052;-68
2023/04/16 02:30:37;;;;;;;81.93;22.98;;;;;;;;;;5109837;28;20059;-67
2023/04/16 02:33:06;;;;;;;80.72;25.42;;;;;;;;;;5108245;28;20067;-67
2023/04/16 02:35:33;;;;;;;88.30;27.33;;;;;;;;;;5110387;28;20513;-68
2023/04/16 02:38:01;;;;;;;92.75;29.73;;;;;;;;;;5110094;28;20047;-68
2023/04/16 02:40:28;;;;;;;87.07;28.13;;;;;;;;;;5108981;27;20077;-68
2023/04/16 02:42:55;;;;;;;81.30;29.42;;;;;;;;;;5110234;28;20471;-67
2023/04/16 02:45:22;;;;;;;75.68;26.77;;;;;;;;;;5106319;27;20048;-67
2023/04/16 02:47:51;;;;;;;84.95;30.75;;;;;;;;;;5109135;28;20055;-67
2023/04/16 02:50:18;;;;;;;89.35;29.73;;;;;;;;;;5108232;27;20055;-68
2023/04/16 02:52:46;;;;;;;91.47;29.42;;;;;;;;;;5107943;28;20056;-67
2023/04/16 02:55:13;;;;;;;88.57;29.70;;;;;;;;;;5106168;28;20064;-67
2023/04/16 02:57:41;;;;;;;80.32;27.67;;;;;;;;;;5105717;28;20050;-67
2023/04/16 03:00:09;;;;;;;91.35;29.02;;;;;;;;;;5108195;28;20047;-68
2023/04/16 03:02:36;;;;;;;79.82;28.77;;;;;;;;;;5109489;27;20051;-67
2023/04/16 03:05:05;;;;;;;88.45;28.67;;;;;;;;;;5109766;27;20494;-68
2023/04/16 03:07:32;;;;;;;83.78;28.65;;;;;;;;;;5106844;28;20043;-67
2023/04/16 03:09:59;;;;;;;85.70;27.60;;;;;;;;;;5109474;28;20047;-67
2023/04/16 03:12:27;;;;;;;83.68;27.95;;;;;;;;;;5107832;28;20175;-67
2023/04/16 03:14:54;;;;;;;80.15;27.27;;;;;;;;;;5110065;28;20051;-68
2023/04/16 03:17:21;;;;;;;88.20;27.52;;;;;;;;;;5109189;28;20047;-67
2023/04/16 03:19:49;;;;;;;84.70;28.83;;;;;;;;;;5109872;28;20043;-67
2023/04/16 03:22:18;;;;;;;89.53;26.50;;;;;;;;;;5106984;28;20115;-67
2023/04/16 03:24:45;;;;;;;81.97;26.58;;;;;;;;;;5107750;28;20051;-68
2023/04/16 03:27:12;;;;;;;75.18;27.02;;;;;;;;;;5107413;28;20048;-67
2023/04/16 03:29:40;;;;;;;78.68;27.02;;;;;;;;;;5107402;28;20479;-68
2023/04/16 03:32:07;;;;;;;79.18;25.63;;;;;;;;;;5108224;28;20043;-67
2023/04/16 03:34:35;;;;;;;83.13;26.42;;;;;;;;;;5108088;28;20074;-67
2023/04/16 03:37:04;;;;;;;82.78;25.38;;;;;;;;;;5108942;28;20059;-67
2023/04/16 03:39:33;;;;;;;82.35;24.17;;;;;;;;;;5107260;28;20059;-67
2023/04/16 03:42:01;;;;;;;75.32;23.15;;;;;;;;;;5104901;28;20105;-68
2023/04/16 03:44:28;;;;;;;71.45;22.60;;;;;;;;;;5107674;27;20055;-67
2023/04/16 03:46:55;;;;;;;70.40;23.05;;;;;;;;;;5105862;27;20048;-67
2023/04/16 03:49:22;;;;;;;65.25;22.15;;;;;;;;;;5107643;28;20184;-68
2023/04/16 03:51:50;;;;;;;78.25;22.77;;;;;;;;;;5108176;27;20048;-67
2023/04/16 03:54:17;;;;;;;73.60;22.83;;;;;;;;;;5100506;28;20134;-67
2023/04/16 03:56:45;;;;;;;79.05;23.42;;;;;;;;;;5108242;27;20063;-67
2023/04/16 03:59:13;;;;;;;70.47;23.00;;;;;;;;;;5107530;28;20051;-67
2023/04/16 04:01:40;;;;;;;77.60;22.92;;;;;;;;;;5105878;27;20057;-67
2023/04/16 04:04:08;;;;;;;78.53;24.33;;;;;;;;;;5107915;28;20352;-67
2023/04/16 04:06:35;;;;;;;68.45;24.65;;;;;;;;;;5107687;27;20417;-68
2023/04/16 04:09:03;;;;;;;78.10;25.85;;;;;;;;;;5107432;28;20062;-67
2023/04/16 04:11:30;;;;;;;100.05;27.73;;;;;;;;;;5109059;28;20043;-67
2023/04/16 04:13:58;;;;;;;95.20;26.05;;;;;;;;;;5105192;28;20048;-67
2023/04/16 04:16:26;;;;;;;89.22;26.08;;;;;;;;;;5107838;28;20051;-67
2023/04/16 04:18:54;;;;;;;101.30;24.73;;;;;;;;;;5107289;28;20042;-68
2023/04/16 04:21:21;;;;;;;73.72;23.48;;;;;;;;;;5108520;28;20052;-67
2023/04/16 04:23:48;;;;;;;75.60;23.15;;;;;;;;;;5103347;28;20055;-67
2023/04/16 04:26:16;;;;;;;91.35;24.65;;;;;;;;;;5109019;28;20441;-67
2023/04/16 04:28:43;;;;;;;92.90;22.85;;;;;;;;;;5102491;28;20686;-67
2023/04/16 04:31:12;;;;;;;81.43;20.98;;;;;;;;;;5106658;28;20165;-67
2023/04/16 04:33:39;;;;;;;76.05;21.33;;;;;;;;;;5105441;28;20505;-67
2023/04/16 04:36:06;;;;;;;89.32;19.35;;;;;;;;;;5110097;27;20046;-68
2023/04/16 04:38:34;;;;;;;88.63;18.77;;;;;;;;;;5106882;28;20497;-67
2023/04/16 04:41:01;;;;;;;96.78;21.00;;;;;;;;;;5105521;28;20126;-68
2023/04/16 04:43:28;;;;;;;68.57;16.55;;;;;;;;;;5107704;28;20457;-68
2023/04/16 04:45:55;;;;;;;64.25;16.58;;;;;;;;;;5106197;28;20048;-67
2023/04/16 04:48:25;;;;;;;65.85;16.30;;;;;;;;;;5109066;28;20436;-67
2023/04/16 04:50:53;;;;;;;76.20;18.42;;;;;;;;;;5105992;28;20496;-67
2023/04/16 04:53:20;;;;;;;78.95;17.27;;;;;;;;;;5104418;28;20067;-67
2023/04/16 04:55:47;;;;;;;67.97;16.35;;;;;;;;;;5106414;28;20062;-68
2023/04/16 04:58:15;;;;;;;85.47;17.63;;;;;;;;;;5102140;28;20051;-67
2023/04/16 05:00:42;;;;;;;84.05;17.42;;;;;;;;;;5108875;28;20127;-67
2023/04/16 05:03:11;;;;;;;90.90;17.83;;;;;;;;;;5106497;28;20113;-67
2023/04/16 05:05:40;;;;;;;80.80;18.30;;;;;;;;;;5104257;28;20059;-67
2023/04/16 05:08:07;;;;;;;92.78;20.70;;;;;;;;;;5106261;28;20093;-67
2023/04/16 05:10:35;;;;;;;81.32;19.38;;;;;;;;;;5106773;28;20043;-67
2023/04/16 05:13:02;;;;;;;90.78;19.15;;;;;;;;;;5106590;28;20052;-68
2023/04/16 05:15:29;;;;;;;76.68;19.73;;;;;;;;;;5100411;28;20051;-68
2023/04/16 05:17:57;;;;;;;94.90;21.05;;;;;;;;;;5106290;28;20058;-67
2023/04/16 05:20:24;;;;;;;88.43;24.60;;;;;;;;;;5107635;28;20047;-68
2023/04/16 05:22:54;;;;;;;92.03;23.77;;;;;;;;;;5106883;28;20062;-67
2023/04/16 05:25:22;;;;;;;81.50;23.38;;;;;;;;;;5102346;28;20039;-68
2023/04/16 05:27:49;;;;;;;83.25;21.17;;;;;;;;;;5106053;28;20116;-68
2023/04/16 05:30:16;;;;;;;68.95;20.67;;;;;;;;;;5105185;28;20051;-68
2023/04/16 05:32:44;;;;;;;70.68;19.55;;;;;;;;;;5107260;28;20067;-68
2023/04/16 05:35:11;;;;;;;74.35;20.38;;;;;;;;;;5107205;28;20063;-68
2023/04/16 05:37:41;;;;;;;91.13;20.67;;;;;;;;;;5105997;28;20047;-68
2023/04/16 05:40:10;;;;;;;85.25;19.30;;;;;;;;;;5103024;28;20051;-67
2023/04/16 05:42:38;;;;;;;87.25;19.30;;;;;;;;;;5104194;28;20063;-68
2023/04/16 05:45:06;;;;;;;71.28;18.02;;;;;;;;;;5104975;28;20040;-67
2023/04/16 05:47:33;;;;;;;86.93;20.73;;;;;;;;;;5111145;27;20050;-68
2023/04/16 05:50:00;;;;;;;73.05;19.67;;;;;;;;;;5108047;27;20047;-67
2023/04/16 05:52:27;;;;;;;75.68;18.50;;;;;;;;;;5111530;28;20047;-67
2023/04/16 05:54:55;;;;;;;76.20;18.30;;;;;;;;;;5104187;28;20039;-68
2023/04/16 05:57:23;;;;;;;78.65;19.40;;;;;;;;;;5110321;28;20562;-69
2023/04/16 05:59:50;;;;;;;82.18;20.83;;;;;;;;;;5108881;28;20073;-68
2023/04/16 06:02:18;;;;;;;72.88;19.40;;;;;;;;;;5117100;27;20092;-67
2023/04/16 06:04:45;;;;;;;76.47;19.17;;;;;;;;;;5108737;28;20624;-68
2023/04/16 06:07:12;;;;;;;81.15;20.20;;;;;;;;;;5108986;28;20047;-68
2023/04/16 06:09:40;;;;;;;98.05;22.73;;;;;;;;;;5108722;28;20274;-68
2023/04/16 06:12:07;;;;;;;70.70;18.92;;;;;;;;;;5108627;28;20055;-68
2023/04/16 06:14:36;;;;;;;70.00;18.42;;;;;;;;;;5109953;28;20062;-68
2023/04/16 06:17:03;;;;;;;69.88;19.38;;;;;;;;;;5108168;27;20055;-68
2023/04/16 06:19:30;;;;;;;62.58;19.10;;;;;;;;;;5109486;28;20047;-67
2023/04/16 06:21:57;;;;;;;65.55;19.38;;;;;;;;;;5109216;27;20299;-68
2023/04/16 06:24:25;;;;;;;62.15;18.95;;;;;;;;;;5099494;27;20062;-69
2023/04/16 06:26:53;;;;;;;62.47;19.30;;;;;;;;;;5106596;28;20491;-68
2023/04/16 06:29:20;;;;;;;58.40;19.50;;;;;;;;;;5107307;28;20501;-68
2023/04/16 06:31:49;;;;;;;60.80;17.23;;;;;;;;;;5110097;28;20058;-68
2023/04/16 06:34:16;;;;;;;53.13;17.00;;;;;;;;;;5109710;28;20062;-68
2023/04/16 06:36:43;;;;;;;63.75;17.70;;;;;;;;;;5108659;28;20408;-69
2023/04/16 06:39:10;;;;;;;58.33;16.25;;;;;;;;;;5109837;28;20055;-70
2023/04/16 06:41:38;;;;;;;66.53;16.63;;;;;;;;;;5105957;27;20885;-69
2023/04/16 06:44:05;;;;;;;53.00;15.27;;;;;;;;;;5107522;27;20091;-69
2023/04/16 06:46:32;;;;;;;68.75;15.73;;;;;;;;;;5109678;27;20047;-69
2023/04/16 06:49:01;;;;;;;53.85;14.20;;;;;;;;;;5109500;28;20094;-69
2023/04/16 06:51:28;;;;;;;62.58;14.55;;;;;;;;;;5109135;28;20056;-69
2023/04/16 06:53:56;;;;;;;53.35;13.57;;;;;;;;;;5105548;28;20075;-69
2023/04/16 06:56:23;;;;;;;53.13;13.43;;;;;;;;;;5107123;27;20055;-69
2023/04/16 06:58:50;;;;;;;46.17;13.07;;;;;;;;;;5109117;28;20043;-69
2023/04/16 07:01:18;;;;;;;44.33;13.73;;;;;;;;;;5108795;28;20070;-69
2023/04/16 07:03:45;;;;;;;50.75;14.15;;;;;;;;;;5110034;28;20390;-69
2023/04/16 07:06:14;;;;;;;63.90;15.43;;;;;;;;;;5107497;28;20047;-69
2023/04/16 07:08:41;;;;;;;51.63;15.85;;;;;;;;;;5104123;28;20044;-69
2023/04/16 07:11:08;;;;;;;67.63;15.10;;;;;;;;;;5109760;28;20484;-69
2023/04/16 07:13:35;;;;;;;47.28;13.85;;;;;;;;;;5103007;28;20122;-69
2023/04/16 07:16:03;;;;;;;41.83;12.93;;;;;;;;;;5105308;28;20063;-69
2023/04/16 07:18:30;;;;;;;50.38;14.02;;;;;;;;;;5105676;28;21266;-69
2023/04/16 07:20:57;;;;;;;43.42;12.45;;;;;;;;;;5103404;28;20059;-69
2023/04/16 07:23:26;;;;;;;55.45;13.75;;;;;;;;;;5101017;28;20044;-69
2023/04/16 07:25:53;;;;;;;49.75;14.07;;;;;;;;;;5102975;27;20048;-69
2023/04/16 07:28:21;;;;;;;61.65;15.50;;;;;;;;;;5107984;28;20039;-69
2023/04/16 07:30:49;;;;;;;52.05;15.27;;;;;;;;;;5107701;28;20051;-69
2023/04/16 07:33:16;;;;;;;52.67;14.75;;;;;;;;;;5107485;28;20543;-69
2023/04/16 07:35:44;;;;;;;46.67;15.13;;;;;;;;;;5108975;27;20047;-69
2023/04/16 07:38:11;;;;;;;40.65;11.93;;;;;;;;;;5106121;28;20215;-69
2023/04/16 07:40:39;;;;;;;52.38;13.38;;;;;;;;;;5109184;28;20060;-69
2023/04/16 07:43:07;;;;;;;46.33;13.63;;;;;;;;;;5107403;27;20484;-69
2023/04/16 07:45:34;;;;;;;54.47;16.08;;;;;;;;;;5105347;28;20051;-69
2023/04/16 07:48:02;;;;;;;48.80;14.20;;;;;;;;;;5106686;28;20055;-69
2023/04/16 07:50:29;;;;;;;56.35;14.52;;;;;;;;;;5109527;28;20056;-69
2023/04/16 07:52:56;;;;;;;49.83;13.48;;;;;;;;;;5104629;27;20040;-69
2023/04/16 07:55:25;;;;;;;49.47;13.90;;;;;;;;;;5104932;28;20399;-69
2023/04/16 07:57:53;;;;;;;53.90;13.68;;;;;;;;;;5106243;27;20127;-69
2023/04/16 08:00:21;;;;;;;51.72;13.57;;;;;;;;;;5106782;28;20048;-69
2023/04/16 08:02:48;;;;;;;50.20;13.52;;;;;;;;;;5105991;28;20054;-69
2023/04/16 08:05:15;;;;;;;48.47;12.93;;;;;;;;;;5108884;27;20565;-69
2023/04/16 08:07:42;;;;;;;46.95;12.65;;;;;;;;;;5104720;28;20073;-69
2023/04/16 08:10:10;;;;;;;48.75;13.02;;;;;;;;;;5107170;28;20054;-69
2023/04/16 08:12:37;;;;;;;50.40;14.18;;;;;;;;;;5107812;28;20054;-69
2023/04/16 08:15:07;;;;;;;43.78;13.10;;;;;;;;;;5102997;28;20209;-69
2023/04/16 08:17:34;;;;;;;47.65;13.25;;;;;;;;;;5109085;28;20123;-69
2023/04/16 08:20:01;;;;;;;49.70;13.70;;;;;;;;;;5107872;28;20051;-69
2023/04/16 08:22:28;;;;;;;53.00;13.82;;;;;;;;;;5108324;28;20546;-69
2023/04/16 08:24:56;;;;;;;56.22;13.98;;;;;;;;;;5108146;28;20101;-69
2023/04/16 08:27:23;;;;;;;51.83;13.48;;;;;;;;;;5107452;27;20055;-69
2023/04/16 08:29:50;;;;;;;46.85;14.20;;;;;;;;;;5107477;28;20109;-69
2023/04/16 08:32:19;;;;;;;61.03;13.02;;;;;;;;;;5108075;28;20051;-69
2023/04/16 08:34:46;;;;;;;48.45;13.27;;;;;;;;;;5107379;28;20050;-69
2023/04/16 08:37:14;;;;;;;52.38;13.52;;;;;;;;;;5108194;28;20044;-69
2023/04/16 08:39:41;;;;;;;47.40;13.07;;;;;;;;;;5105065;28;20352;-69
2023/04/16 08:42:15;;;;;;;39.47;12.57;;;;;;;;;;5107655;28;20054;-69
2023/04/16 08:44:44;;;;;;;46.97;13.73;;;;;;;;;;5100467;28;20104;-69
2023/04/16 08:47:13;;;;;;;47.75;14.05;;;;;;;;;;5105771;28;20054;-69
2023/04/16 08:49:44;;;;;;;55.53;13.77;;;;;;;;;;5104752;28;20047;-69
2023/04/16 08:52:15;;;;;;;46.03;13.32;;;;;;;;;;5109605;28;20052;-69
2023/04/16 08:54:47;;;;;;;45.92;13.15;;;;;;;;;;5103536;28;20392;-69
2023/04/16 08:57:17;;;;;;;50.17;12.05;;;;;;;;;;5107928;28;20054;-69
2023/04/16 08:59:46;;;;;;;39.85;11.65;;;;;;;;;;5105075;28;20047;-69
2023/04/16 09:02:14;;;;;;;38.13;12.40;;;;;;;;;;5108210;28;20051;-69
2023/04/16 09:04:43;;;;;;;38.42;12.20;;;;;;;;;;5105096;28;20054;-69
2023/04/16 09:07:10;;;;;;;34.60;11.93;;;;;;;;;;5106788;28;20044;-69
2023/04/16 09:09:38;;;;;;;41.35;12.95;;;;;;;;;;5106011;28;20054;-69
2023/04/16 09:12:06;;;;;;;42.45;12.07;;;;;;;;;;5105285;28;20047;-69
2023/04/16 09:14:34;;;;;;;46.25;12.85;;;;;;;;;;5104493;28;20035;-69
2023/04/16 09:17:03;;;;;;;45.00;13.15;;;;;;;;;;5105862;28;20052;-69
2023/04/16 09:19:30;;;;;;;52.13;12.93;;;;;;;;;;5113384;28;20047;-69
2023/04/16 09:21:59;;;;;;;43.83;12.38;;;;;;;;;;5106995;28;21418;-69
2023/04/16 09:24:26;;;;;;;44.97;12.98;;;;;;;;;;5109244;28;20040;-69
2023/04/16 09:26:55;;;;;;;46.35;11.82;;;;;;;;;;5111372;28;20474;-69
2023/04/16 09:29:40;;;;;;;42.75;11.85;;;;;;;;;;5111207;28;20062;-69
2023/04/16 09:32:08;;;;;;;42.45;12.40;;;;;;;;;;5110146;28;20056;-69
2023/04/16 09:34:36;;;;;;;42.28;11.75;;;;;;;;;;5111273;27;20046;-69
2023/04/16 09:37:17;;;;;;;40.80;11.63;;;;;;;;;;5109583;28;20058;-69
2023/04/16 09:39:45;;;;;;;34.42;11.95;;;;;;;;;;5105956;27;20051;-69
2023/04/16 09:42:12;;;;;;;33.42;11.75;;;;;;;;;;5110945;27;20443;-69
2023/04/16 09:44:40;;;;;;;43.17;11.65;;;;;;;;;;5109479;28;20840;-69
2023/04/16 09:47:07;;;;;;;40.65;12.25;;;;;;;;;;5109554;27;20054;-69
2023/04/16 09:49:35;;;;;;;39.88;13.07;;;;;;;;;;5108104;28;20040;-69
2023/04/16 09:52:03;;;;;;;46.60;13.65;;;;;;;;;;5111121;28;20055;-69
2023/04/16 09:54:31;;;;;;;47.28;12.75;;;;;;;;;;5109277;28;20051;-69
2023/04/16 09:57:01;;;;;;;41.22;12.20;;;;;;;;;;5111228;28;20070;-69
2023/04/16 09:59:32;;;;;;;44.08;12.90;;;;;;;;;;5108306;28;20086;-69
2023/04/16 10:02:00;;;;;;;51.28;12.35;;;;;;;;;;5101122;27;20508;-68
2023/04/16 10:04:28;;;;;;;44.10;11.95;;;;;;;;;;5108303;28;20398;-69
2023/04/16 10:07:04;;;;;;;48.60;12.20;;;;;;;;;;5111266;28;20044;-69
2023/04/16 10:09:37;;;;;;;35.72;11.63;;;;;;;;;;5106213;28;20059;-69
2023/04/16 10:12:05;;;;;;;40.17;12.45;;;;;;;;;;5108168;28;20051;-69
2023/04/16 10:14:33;;;;;;;37.83;13.05;;;;;;;;;;5109974;28;20043;-69
2023/04/16 10:17:01;;;;;;;34.85;12.80;;;;;;;;;;5109702;28;20087;-69
2023/04/16 10:19:30;;;;;;;28.50;12.27;;;;;;;;;;5109924;28;20044;-69
2023/04/16 10:21:58;;;;;;;35.92;13.50;;;;;;;;;;5108690;28;20510;-69
2023/04/16 10:24:26;;;;;;;37.05;13.75;;;;;;;;;;5108959;28;20040;-69
2023/04/16 10:26:55;;;;;;;36.05;15.30;;;;;;;;;;5108256;28;20052;-69
2023/04/16 10:29:23;;;;;;;40.25;13.65;;;;;;;;;;5109187;28;20156;-69
2023/04/16 10:31:50;;;;;;;32.03;12.68;;;;;;;;;;5106460;28;20044;-69
2023/04/16 10:34:19;;;;;;;41.58;13.40;;;;;;;;;;5109135;28;20051;-69
2023/04/16 10:36:49;;;;;;;44.05;13.80;;;;;;;;;;5109250;28;20468;-69
2023/04/16 10:39:18;;;;;;;36.33;13.52;;;;;;;;;;5103706;27;20048;-69
2023/04/16 10:41:45;;;;;;;30.35;13.48;;;;;;;;;;5107489;28;20043;-69
2023/04/16 10:44:17;;;;;;;36.58;12.88;;;;;;;;;;5110139;28;20086;-69
2023/04/16 10:46:45;;;;;;;36.92;13.43;;;;;;;;;;5108171;28;20047;-69
2023/04/16 10:49:16;;;;;;;40.72;13.00;;;;;;;;;;5109388;28;20048;-69
2023/04/16 10:51:52;;;;;;;47.97;13.80;;;;;;;;;;5110403;27;20051;-69
2023/04/16 10:54:20;;;;;;;41.22;13.60;;;;;;;;;;5108317;28;20043;-69
2023/04/16 10:56:48;;;;;;;44.88;13.23;;;;;;;;;;5110812;27;20059;-69
2023/04/16 10:59:18;;;;;;;39.90;12.68;;;;;;;;;;5108189;28;20391;-68
2023/04/16 11:01:46;;;;;;;40.63;13.18;;;;;;;;;;5110210;28;20047;-68
2023/04/16 11:04:28;;;;;;;41.72;13.95;;;;;;;;;;5108198;28;20157;-69
2023/04/16 11:07:02;;;;;;;42.53;12.60;;;;;;;;;;5104963;28;20055;-65
2023/04/16 11:10:01;;;;;;;36.38;13.05;;;;;;;;;;5108939;27;20047;-65
2023/04/16 11:12:36;;;;;;;39.55;11.88;;;;;;;;;;5064723;28;20044;-65
2023/04/16 11:15:05;;;;;;;38.72;12.48;;;;;;;;;;5096269;27;20116;-66
2023/04/16 11:17:33;;;;;;;38.55;13.68;;;;;;;;;;5107584;28;20063;-65
2023/04/16 11:20:00;;;;;;;34.05;12.88;;;;;;;;;;5098865;27;20079;-65
2023/04/16 11:22:28;;;;;;;28.70;13.05;;;;;;;;;;5107492;28;20043;-65
2023/04/16 11:24:55;;;;;;;38.63;13.65;;;;;;;;;;5106678;27;20051;-65
2023/04/16 11:27:23;;;;;;;36.63;13.82;;;;;;;;;;5105245;27;20079;-65
2023/04/16 11:29:57;;;;;;;37.28;12.40;;;;;;;;;;5101200;28;20056;-65
2023/04/16 11:32:26;;;;;;;32.28;13.20;;;;;;;;;;5102309;28;20490;-65
2023/04/16 11:34:53;;;;;;;36.97;13.43;;;;;;;;;;5101644;28;20044;-65
2023/04/16 11:37:21;;;;;;;37.50;13.70;;;;;;;;;;5107818;28;20051;-65
2023/04/16 11:39:52;;;;;;;37.30;14.48;;;;;;;;;;5108123;28;20097;-65
2023/04/16 11:42:23;;;;;;;38.20;14.35;;;;;;;;;;5109104;28;20403;-65
2023/04/16 11:44:54;;;;;;;37.10;14.75;;;;;;;;;;5105596;28;20491;-65
2023/04/16 11:47:21;;;;;;;38.05;14.05;;;;;;;;;;5101569;28;20142;-65
2023/04/16 11:49:50;;;;;;;37.55;14.88;;;;;;;;;;5105712;27;20043;-65
2023/04/16 11:52:27;;;;;;;35.13;13.45;;;;;;;;;;5102691;28;20062;-65
2023/04/16 11:54:54;;;;;;;36.25;13.20;;;;;;;;;;5106692;28;20101;-65
2023/04/16 11:57:25;;;;;;;33.75;12.65;;;;;;;;;;5108257;27;20055;-65
2023/04/16 11:59:52;;;;;;;31.73;12.18;;;;;;;;;;5106530;27;20043;-65
2023/04/16 12:02:35;;;;;;;30.92;12.35;;;;;;;;;;5108378;28;20048;-65
2023/04/16 12:05:04;;;;;;;31.35;13.27;;;;;;;;;;5104325;28;20094;-65
2023/04/16 12:07:31;;;;;;;32.13;11.80;;;;;;;;;;5105421;28;20047;-65
2023/04/16 12:10:10;;;;;;;30.73;12.02;;;;;;;;;;5105525;28;20615;-65
2023/04/16 12:12:37;;;;;;;25.95;12.93;;;;;;;;;;5104703;28;20058;-65
2023/04/16 12:15:05;;;;;;;33.92;13.52;;;;;;;;;;5107594;28;20043;-65
2023/04/16 12:17:33;;;;;;;28.80;12.70;;;;;;;;;;5106161;27;20043;-65
2023/04/16 12:20:00;;;;;;;26.17;12.43;;;;;;;;;;5106965;28;20056;-65
2023/04/16 12:22:33;;;;;;;31.90;12.25;;;;;;;;;;5107579;28;20050;-65
2023/04/16 12:25:01;;;;;;;24.90;12.88;;;;;;;;;;5105868;28;20392;-65
2023/04/16 12:27:42;;;;;;;26.40;12.20;;;;;;;;;;5108357;28;20055;-65
2023/04/16 12:30:10;;;;;;;31.23;13.75;;;;;;;;;;5105684;27;20155;-65
2023/04/16 12:32:37;;;;;;;29.25;13.05;;;;;;;;;;5104636;27;20563;-65
2023/04/16 12:35:05;;;;;;;29.77;12.60;;;;;;;;;;5108824;27;20076;-65
2023/04/16 12:37:34;;;;;;;32.00;12.68;;;;;;;;;;5107885;28;20040;-65
2023/04/16 12:40:04;;;;;;;28.20;12.15;;;;;;;;;;5105378;28;20516;-65
2023/04/16 12:42:34;;;;;;;27.95;12.88;;;;;;;;;;5104545;28;20104;-66
2023/04/16 12:45:04;;;;;;;28.55;13.00;;;;;;;;;;5102846;28;20048;-65
2023/04/16 12:47:31;;;;;;;30.90;13.32;;;;;;;;;;5107455;28;20054;-65
2023/04/16 12:49:59;;;;;;;28.48;12.80;;;;;;;;;;5105876;28;20054;-65
2023/04/16 12:52:26;;;;;;;27.58;12.73;;;;;;;;;;5106657;28;20054;-65
2023/04/16 12:54:55;;;;;;;33.20;13.05;;;;;;;;;;5100821;28;20495;-65
2023/04/16 12:57:27;;;;;;;28.75;12.35;;;;;;;;;;5114003;27;20055;-66
2023/04/16 12:59:54;;;;;;;32.08;12.98;;;;;;;;;;5112419;27;20043;-65
2023/04/16 13:02:22;;;;;;;30.83;13.27;;;;;;;;;;5115359;27;20054;-65
2023/04/16 13:04:49;;;;;;;31.52;13.10;;;;;;;;;;5114231;27;20078;-65
2023/04/16 13:07:16;;;;;;;29.25;13.88;;;;;;;;;;5112924;27;20051;-65
2023/04/16 13:09:44;;;;;;;24.23;13.07;;;;;;;;;;5114730;27;20044;-66
2023/04/16 13:12:13;;;;;;;31.75;13.55;;;;;;;;;;5111710;27;20699;-65
2023/04/16 13:14:40;;;;;;;27.40;12.88;;;;;;;;;;5111901;27;20403;-65
2023/04/16 13:17:07;;;;;;;23.95;12.23;;;;;;;;;;5113778;27;20046;-66
2023/04/16 13:19:34;;;;;;;27.73;12.35;;;;;;;;;;5107998;27;20048;-65
2023/04/16 13:22:02;;;;;;;28.88;12.80;;;;;;;;;;5111275;27;20052;-66
2023/04/16 13:24:29;;;;;;;28.50;12.77;;;;;;;;;;5107533;27;20040;-65
2023/04/16 13:26:56;;;;;;;32.08;13.65;;;;;;;;;;5111583;27;20059;-65
2023/04/16 13:29:25;;;;;;;26.83;13.57;;;;;;;;;;5107891;27;20100;-66
2023/04/16 13:31:52;;;;;;;30.23;13.35;;;;;;;;;;5114158;27;20071;-65
2023/04/16 13:34:20;;;;;;;26.05;13.60;;;;;;;;;;5113172;27;20546;-65
2023/04/16 13:36:47;;;;;;;22.02;12.90;;;;;;;;;;5113834;27;20055;-65
2023/04/16 13:39:15;;;;;;;23.80;12.70;;;;;;;;;;5111112;27;20070;-66
2023/04/16 13:41:42;;;;;;;33.78;13.35;;;;;;;;;;5107223;27;20055;-66
2023/04/16 13:44:09;;;;;;;30.98;13.35;;;;;;;;;;5112905;27;20051;-65
2023/04/16 13:46:38;;;;;;;30.88;13.68;;;;;;;;;;5112393;27;20555;-66
2023/04/16 13:49:05;;;;;;;30.38;12.85;;;;;;;;;;5108572;27;20085;-66
2023/04/16 13:51:32;;;;;;;32.25;13.05;;;;;;;;;;5111147;27;20044;-65
2023/04/16 13:54:00;;;;;;;25.73;11.32;;;;;;;;;;5112947;27;20048;-66
2023/04/16 13:56:27;;;;;;;39.85;13.57;;;;;;;;;;5112480;27;20087;-66
2023/04/16 13:58:55;;;;;;;24.30;13.70;;;;;;;;;;5114256;27;20043;-66
2023/04/16 14:01:22;;;;;;;30.75;13.23;;;;;;;;;;5103121;27;20055;-66
2023/04/16 14:03:51;;;;;;;32.35;12.82;;;;;;;;;;5106481;27;20044;-65
2023/04/16 14:06:18;;;;;;;27.23;13.27;;;;;;;;;;5108961;27;20035;-66
2023/04/16 14:08:45;;;;;;;30.45;13.73;;;;;;;;;;5108291;28;20130;-65
2023/04/16 14:11:13;;;;;;;25.30;12.32;;;;;;;;;;5109946;28;20051;-66
2023/04/16 14:13:40;;;;;;;25.92;12.85;;;;;;;;;;5107816;27;20047;-66
2023/04/16 14:16:07;;;;;;;28.48;13.52;;;;;;;;;;5102936;27;20050;-65
2023/04/16 14:18:35;;;;;;;28.88;13.30;;;;;;;;;;5109652;27;20052;-65
2023/04/16 14:21:04;;;;;;;25.75;13.27;;;;;;;;;;5104395;28;20063;-66